sensor_id;sensor_type;location;lat;lon;timestamp;temperature;humidity
23289;DHT22;11813;50.834;4.280;2022-12-18T00:01:15;-1.30;99.90
23289;DHT22;11813;50.834;4.280;2022-12-18T00:03:41;-1.30;99.90
23289;DHT22;11813;50.834;4.280;2022-12-18T00:06:07;-1.30;99.90
23289;DHT22;11813;50.834;4.280;2022-12-18T00:08:34;-1.40;99.90
23289;DHT22;11813;50.834;4.280;2022-12-18T00:11:07;-1.40;99.90
23289;DHT22;11813;50.834;4.280;2022-12-18T00:13:33;-1.40;99.90
23289;DHT22;11813;50.834;4.280;2022-12-18T00:16:07;-1.50;99.90
23289;DHT22;11813;50.834;4.280;2022-12-18T00:18:33;-1.60;99.90
23289;DHT22;11813;50.834;4.280;2022-12-18T00:21:00;-1.70;99.90
23289;DHT22;11813;50.834;4.280;2022-12-18T00:23:26;-1.70;99.90
23289;DHT22;11813;50.834;4.280;2022-12-18T00:25:52;-1.80;99.90
23289;DHT22;11813;50.834;4.280;2022-12-18T00:28:18;-1.80;99.90
23289;DHT22;11813;50.834;4.280;2022-12-18T00:30:44;-1.80;99.90
23289;DHT22;11813;50.834;4.280;2022-12-18T00:33:10;-1.90;99.90
23289;DHT22;11813;50.834;4.280;2022-12-18T00:35:35;-1.90;99.90
23289;DHT22;11813;50.834;4.280;2022-12-18T00:38:01;-1.90;99.90
23289;DHT22;11813;50.834;4.280;2022-12-18T00:40:26;-1.80;99.90
23289;DHT22;11813;50.834;4.280;2022-12-18T00:42:52;-1.70;99.90
23289;DHT22;11813;50.834;4.280;2022-12-18T00:45:28;-1.70;99.90
23289;DHT22;11813;50.834;4.280;2022-12-18T00:47:54;-1.70;99.90
23289;DHT22;11813;50.834;4.280;2022-12-18T00:50:21;-1.80;99.90
23289;DHT22;11813;50.834;4.280;2022-12-18T00:52:47;-1.80;99.90
23289;DHT22;11813;50.834;4.280;2022-12-18T00:55:13;-1.90;99.90
23289;DHT22;11813;50.834;4.280;2022-12-18T00:57:39;-1.90;99.90
23289;DHT22;11813;50.834;4.280;2022-12-18T01:00:08;-1.90;99.90
23289;DHT22;11813;50.834;4.280;2022-12-18T01:02:35;-1.90;99.90
23289;DHT22;11813;50.834;4.280;2022-12-18T01:05:00;-2.00;99.90
23289;DHT22;11813;50.834;4.280;2022-12-18T01:07:26;-2.10;99.90
23289;DHT22;11813;50.834;4.280;2022-12-18T01:09:52;-2.10;99.90
23289;DHT22;11813;50.834;4.280;2022-12-18T01:12:17;-2.00;99.90
23289;DHT22;11813;50.834;4.280;2022-12-18T01:14:43;-2.10;99.90
23289;DHT22;11813;50.834;4.280;2022-12-18T01:17:09;-2.10;99.90
23289;DHT22;11813;50.834;4.280;2022-12-18T01:19:34;-2.10;99.90
23289;DHT22;11813;50.834;4.280;2022-12-18T01:22:00;-2.00;99.90
23289;DHT22;11813;50.834;4.280;2022-12-18T01:24:25;-2.00;99.90
23289;DHT22;11813;50.834;4.280;2022-12-18T01:26:51;-2.00;99.90
23289;DHT22;11813;50.834;4.280;2022-12-18T01:29:17;-2.10;99.90
23289;DHT22;11813;50.834;4.280;2022-12-18T01:31:42;-2.10;99.90
23289;DHT22;11813;50.834;4.280;2022-12-18T01:34:09;-2.10;99.90
23289;DHT22;11813;50.834;4.280;2022-12-18T01:36:37;-2.10;99.90
23289;DHT22;11813;50.834;4.280;2022-12-18T01:39:07;-2.30;99.90
23289;DHT22;11813;50.834;4.280;2022-12-18T01:41:33;-2.40;99.90
23289;DHT22;11813;50.834;4.280;2022-12-18T01:52:33;-2.40;99.90
23289;DHT22;11813;50.834;4.280;2022-12-18T01:55:00;-2.40;99.90
23289;DHT22;11813;50.834;4.280;2022-12-18T01:57:27;-2.50;99.90
23289;DHT22;11813;50.834;4.280;2022-12-18T01:59:59;-2.50;99.90
23289;DHT22;11813;50.834;4.280;2022-12-18T02:02:27;-2.40;99.90
23289;DHT22;11813;50.834;4.280;2022-12-18T02:04:54;-2.40;99.90
23289;DHT22;11813;50.834;4.280;2022-12-18T02:07:21;-2.40;99.90
23289;DHT22;11813;50.834;4.280;2022-12-18T02:09:59;-2.50;99.90
23289;DHT22;11813;50.834;4.280;2022-12-18T02:12:31;-2.50;99.90
23289;DHT22;11813;50.834;4.280;2022-12-18T02:15:27;-2.50;99.90
23289;DHT22;11813;50.834;4.280;2022-12-18T02:18:12;-2.50;99.90
23289;DHT22;11813;50.834;4.280;2022-12-18T02:21:08;-2.60;99.90
23289;DHT22;11813;50.834;4.280;2022-12-18T02:26:37;-2.70;99.90
23289;DHT22;11813;50.834;4.280;2022-12-18T02:29:12;-2.80;99.90
23289;DHT22;11813;50.834;4.280;2022-12-18T02:31:52;-2.80;99.90
23289;DHT22;11813;50.834;4.280;2022-12-18T02:34:20;-2.80;99.90
23289;DHT22;11813;50.834;4.280;2022-12-18T02:36:48;-2.80;99.90
23289;DHT22;11813;50.834;4.280;2022-12-18T02:39:15;-2.90;99.90
23289;DHT22;11813;50.834;4.280;2022-12-18T02:41:41;-2.80;99.90
23289;DHT22;11813;50.834;4.280;2022-12-18T02:44:12;-2.80;99.90
23289;DHT22;11813;50.834;4.280;2022-12-18T02:46:43;-2.80;99.90
23289;DHT22;11813;50.834;4.280;2022-12-18T02:52:01;-3.00;99.90
23289;DHT22;11813;50.834;4.280;2022-12-18T03:03:16;-3.00;99.90
23289;DHT22;11813;50.834;4.280;2022-12-18T03:05:56;-3.00;99.90
23289;DHT22;11813;50.834;4.280;2022-12-18T03:08:27;-3.00;99.90
23289;DHT22;11813;50.834;4.280;2022-12-18T03:11:03;-3.00;99.90
23289;DHT22;11813;50.834;4.280;2022-12-18T03:13:34;-3.00;99.90
23289;DHT22;11813;50.834;4.280;2022-12-18T03:16:02;-3.10;99.90
23289;DHT22;11813;50.834;4.280;2022-12-18T03:18:35;-3.10;99.90
23289;DHT22;11813;50.834;4.280;2022-12-18T03:21:05;-3.00;99.90
23289;DHT22;11813;50.834;4.280;2022-12-18T03:23:36;-3.10;99.90
23289;DHT22;11813;50.834;4.280;2022-12-18T03:26:08;-3.00;99.90
23289;DHT22;11813;50.834;4.280;2022-12-18T03:28:38;-3.00;99.90
23289;DHT22;11813;50.834;4.280;2022-12-18T03:31:08;-3.00;99.90
23289;DHT22;11813;50.834;4.280;2022-12-18T03:33:40;-3.00;99.90
23289;DHT22;11813;50.834;4.280;2022-12-18T03:36:07;-3.00;99.90
23289;DHT22;11813;50.834;4.280;2022-12-18T03:38:33;-3.00;99.90
23289;DHT22;11813;50.834;4.280;2022-12-18T03:40:59;-3.00;99.90
23289;DHT22;11813;50.834;4.280;2022-12-18T03:43:49;-3.00;99.90
23289;DHT22;11813;50.834;4.280;2022-12-18T03:46:33;-3.00;99.90
23289;DHT22;11813;50.834;4.280;2022-12-18T03:49:16;-3.10;99.90
23289;DHT22;11813;50.834;4.280;2022-12-18T03:51:52;-3.00;99.90
23289;DHT22;11813;50.834;4.280;2022-12-18T03:54:18;-3.00;99.90
23289;DHT22;11813;50.834;4.280;2022-12-18T03:56:54;-3.00;99.90
23289;DHT22;11813;50.834;4.280;2022-12-18T03:59:22;-3.00;99.90
23289;DHT22;11813;50.834;4.280;2022-12-18T04:01:51;-3.10;99.90
23289;DHT22;11813;50.834;4.280;2022-12-18T04:04:18;-3.10;99.90
23289;DHT22;11813;50.834;4.280;2022-12-18T04:06:46;-3.10;99.90
23289;DHT22;11813;50.834;4.280;2022-12-18T04:09:13;-3.10;99.90
23289;DHT22;11813;50.834;4.280;2022-12-18T04:11:41;-3.10;99.90
23289;DHT22;11813;50.834;4.280;2022-12-18T04:14:07;-3.10;99.90
23289;DHT22;11813;50.834;4.280;2022-12-18T04:16:33;-3.10;99.90
23289;DHT22;11813;50.834;4.280;2022-12-18T04:18:58;-3.10;99.90
23289;DHT22;11813;50.834;4.280;2022-12-18T04:21:24;-3.10;99.90
23289;DHT22;11813;50.834;4.280;2022-12-18T04:23:49;-3.10;99.90
23289;DHT22;11813;50.834;4.280;2022-12-18T04:26:15;-3.10;99.90
23289;DHT22;11813;50.834;4.280;2022-12-18T04:28:41;-3.10;99.90
23289;DHT22;11813;50.834;4.280;2022-12-18T04:31:06;-3.20;99.90
23289;DHT22;11813;50.834;4.280;2022-12-18T04:33:32;-3.30;99.90
23289;DHT22;11813;50.834;4.280;2022-12-18T04:35:57;-3.20;99.90
23289;DHT22;11813;50.834;4.280;2022-12-18T04:38:23;-3.20;99.90
23289;DHT22;11813;50.834;4.280;2022-12-18T04:40:48;-3.10;99.90
23289;DHT22;11813;50.834;4.280;2022-12-18T04:43:14;-3.10;99.90
23289;DHT22;11813;50.834;4.280;2022-12-18T04:45:40;-3.10;99.90
23289;DHT22;11813;50.834;4.280;2022-12-18T04:48:05;-3.10;99.90
23289;DHT22;11813;50.834;4.280;2022-12-18T04:50:31;-3.20;99.90
23289;DHT22;11813;50.834;4.280;2022-12-18T04:52:57;-3.20;99.90
23289;DHT22;11813;50.834;4.280;2022-12-18T04:55:24;-3.20;99.90
23289;DHT22;11813;50.834;4.280;2022-12-18T04:57:49;-3.30;99.90
23289;DHT22;11813;50.834;4.280;2022-12-18T05:00:15;-3.30;99.90
23289;DHT22;11813;50.834;4.280;2022-12-18T05:02:41;-3.30;99.90
23289;DHT22;11813;50.834;4.280;2022-12-18T05:05:07;-3.30;99.90
23289;DHT22;11813;50.834;4.280;2022-12-18T05:07:33;-3.20;99.90
23289;DHT22;11813;50.834;4.280;2022-12-18T05:09:58;-3.30;99.90
23289;DHT22;11813;50.834;4.280;2022-12-18T05:12:24;-3.40;99.90
23289;DHT22;11813;50.834;4.280;2022-12-18T05:14:50;-3.30;99.90
23289;DHT22;11813;50.834;4.280;2022-12-18T05:17:15;-3.40;99.90
23289;DHT22;11813;50.834;4.280;2022-12-18T05:19:41;-3.30;99.90
23289;DHT22;11813;50.834;4.280;2022-12-18T05:22:06;-3.30;99.90
23289;DHT22;11813;50.834;4.280;2022-12-18T05:24:32;-3.30;99.90
23289;DHT22;11813;50.834;4.280;2022-12-18T05:26:57;-3.30;99.90
23289;DHT22;11813;50.834;4.280;2022-12-18T05:29:23;-3.30;99.90
23289;DHT22;11813;50.834;4.280;2022-12-18T05:31:49;-3.40;99.90
23289;DHT22;11813;50.834;4.280;2022-12-18T05:34:14;-3.30;99.90
23289;DHT22;11813;50.834;4.280;2022-12-18T05:36:40;-3.30;99.90
23289;DHT22;11813;50.834;4.280;2022-12-18T05:39:06;-3.40;99.90
23289;DHT22;11813;50.834;4.280;2022-12-18T05:41:32;-3.50;99.90
23289;DHT22;11813;50.834;4.280;2022-12-18T05:43:58;-3.40;99.90
23289;DHT22;11813;50.834;4.280;2022-12-18T05:46:24;-3.40;99.90
23289;DHT22;11813;50.834;4.280;2022-12-18T05:48:49;-3.40;99.90
23289;DHT22;11813;50.834;4.280;2022-12-18T05:51:17;-3.40;99.90
23289;DHT22;11813;50.834;4.280;2022-12-18T05:53:44;-3.40;99.90
23289;DHT22;11813;50.834;4.280;2022-12-18T05:56:15;-3.40;99.90
23289;DHT22;11813;50.834;4.280;2022-12-18T05:58:42;-3.60;99.90
23289;DHT22;11813;50.834;4.280;2022-12-18T06:01:17;-3.60;99.90
23289;DHT22;11813;50.834;4.280;2022-12-18T06:03:43;-3.60;99.90
23289;DHT22;11813;50.834;4.280;2022-12-18T06:06:20;-3.60;99.90
23289;DHT22;11813;50.834;4.280;2022-12-18T06:08:47;-3.50;99.90
23289;DHT22;11813;50.834;4.280;2022-12-18T06:11:17;-3.50;99.90
23289;DHT22;11813;50.834;4.280;2022-12-18T06:13:43;-3.50;99.90
23289;DHT22;11813;50.834;4.280;2022-12-18T06:16:09;-3.50;99.90
23289;DHT22;11813;50.834;4.280;2022-12-18T06:18:34;-3.40;99.90
23289;DHT22;11813;50.834;4.280;2022-12-18T06:21:00;-3.50;99.90
23289;DHT22;11813;50.834;4.280;2022-12-18T06:23:26;-3.40;99.90
23289;DHT22;11813;50.834;4.280;2022-12-18T06:25:52;-3.40;99.90
23289;DHT22;11813;50.834;4.280;2022-12-18T06:28:18;-3.40;99.90
23289;DHT22;11813;50.834;4.280;2022-12-18T06:30:44;-3.40;99.90
23289;DHT22;11813;50.834;4.280;2022-12-18T06:33:10;-3.40;99.90
23289;DHT22;11813;50.834;4.280;2022-12-18T06:35:36;-3.40;99.90
23289;DHT22;11813;50.834;4.280;2022-12-18T06:38:02;-3.40;99.90
23289;DHT22;11813;50.834;4.280;2022-12-18T06:40:28;-3.30;99.90
23289;DHT22;11813;50.834;4.280;2022-12-18T06:42:54;-3.30;99.90
23289;DHT22;11813;50.834;4.280;2022-12-18T06:45:20;-3.40;99.90
23289;DHT22;11813;50.834;4.280;2022-12-18T06:47:45;-3.40;99.90
23289;DHT22;11813;50.834;4.280;2022-12-18T06:50:12;-3.50;99.90
23289;DHT22;11813;50.834;4.280;2022-12-18T06:52:38;-3.40;99.90
23289;DHT22;11813;50.834;4.280;2022-12-18T06:55:05;-3.40;99.90
23289;DHT22;11813;50.834;4.280;2022-12-18T06:57:30;-3.40;99.90
23289;DHT22;11813;50.834;4.280;2022-12-18T06:59:56;-3.40;99.90
23289;DHT22;11813;50.834;4.280;2022-12-18T07:02:22;-3.40;99.90
23289;DHT22;11813;50.834;4.280;2022-12-18T07:04:50;-3.30;99.90
23289;DHT22;11813;50.834;4.280;2022-12-18T07:07:16;-3.40;99.90
23289;DHT22;11813;50.834;4.280;2022-12-18T07:09:41;-3.40;99.90
23289;DHT22;11813;50.834;4.280;2022-12-18T07:12:07;-3.50;99.90
23289;DHT22;11813;50.834;4.280;2022-12-18T07:14:33;-3.50;99.90
23289;DHT22;11813;50.834;4.280;2022-12-18T07:16:59;-3.50;99.90
23289;DHT22;11813;50.834;4.280;2022-12-18T07:19:24;-3.50;99.90
23289;DHT22;11813;50.834;4.280;2022-12-18T07:21:50;-3.50;99.90
23289;DHT22;11813;50.834;4.280;2022-12-18T07:24:16;-3.50;99.90
23289;DHT22;11813;50.834;4.280;2022-12-18T07:26:42;-3.50;99.90
23289;DHT22;11813;50.834;4.280;2022-12-18T07:29:07;-3.50;99.90
23289;DHT22;11813;50.834;4.280;2022-12-18T07:31:33;-3.50;99.90
23289;DHT22;11813;50.834;4.280;2022-12-18T07:33:58;-3.40;99.90
23289;DHT22;11813;50.834;4.280;2022-12-18T07:36:24;-3.60;99.90
23289;DHT22;11813;50.834;4.280;2022-12-18T07:38:50;-3.50;99.90
23289;DHT22;11813;50.834;4.280;2022-12-18T07:41:18;-3.60;99.90
23289;DHT22;11813;50.834;4.280;2022-12-18T07:43:44;-3.60;99.90
23289;DHT22;11813;50.834;4.280;2022-12-18T07:46:10;-3.50;99.90
23289;DHT22;11813;50.834;4.280;2022-12-18T07:48:39;-3.40;99.90
23289;DHT22;11813;50.834;4.280;2022-12-18T07:51:06;-3.40;99.90
23289;DHT22;11813;50.834;4.280;2022-12-18T07:53:33;-3.50;99.90
23289;DHT22;11813;50.834;4.280;2022-12-18T07:56:01;-3.40;99.90
23289;DHT22;11813;50.834;4.280;2022-12-18T07:58:28;-3.40;99.90
23289;DHT22;11813;50.834;4.280;2022-12-18T08:00:54;-3.50;99.90
23289;DHT22;11813;50.834;4.280;2022-12-18T08:03:26;-3.50;99.90
23289;DHT22;11813;50.834;4.280;2022-12-18T08:05:52;-3.60;99.90
23289;DHT22;11813;50.834;4.280;2022-12-18T08:08:17;-3.60;99.90
23289;DHT22;11813;50.834;4.280;2022-12-18T08:10:43;-3.50;99.90
23289;DHT22;11813;50.834;4.280;2022-12-18T08:13:09;-3.50;99.90
23289;DHT22;11813;50.834;4.280;2022-12-18T08:15:34;-3.50;99.90
23289;DHT22;11813;50.834;4.280;2022-12-18T08:18:00;-3.50;99.90
23289;DHT22;11813;50.834;4.280;2022-12-18T08:20:25;-3.30;99.90
23289;DHT22;11813;50.834;4.280;2022-12-18T08:22:51;-3.20;99.90
23289;DHT22;11813;50.834;4.280;2022-12-18T08:25:16;-3.30;99.90
23289;DHT22;11813;50.834;4.280;2022-12-18T08:27:42;-3.30;99.90
23289;DHT22;11813;50.834;4.280;2022-12-18T08:30:08;-3.10;99.90
23289;DHT22;11813;50.834;4.280;2022-12-18T08:32:34;-2.80;99.90
23289;DHT22;11813;50.834;4.280;2022-12-18T08:34:59;-2.60;99.90
23289;DHT22;11813;50.834;4.280;2022-12-18T08:37:25;-2.60;99.90
23289;DHT22;11813;50.834;4.280;2022-12-18T08:39:51;-2.70;99.90
23289;DHT22;11813;50.834;4.280;2022-12-18T08:42:16;-2.50;99.90
23289;DHT22;11813;50.834;4.280;2022-12-18T08:45:21;-2.40;99.90
23289;DHT22;11813;50.834;4.280;2022-12-18T08:47:46;-2.30;99.90
23289;DHT22;11813;50.834;4.280;2022-12-18T08:50:12;-2.20;99.90
23289;DHT22;11813;50.834;4.280;2022-12-18T08:52:37;-2.00;99.90
23289;DHT22;11813;50.834;4.280;2022-12-18T08:55:03;-1.80;99.90
23289;DHT22;11813;50.834;4.280;2022-12-18T08:57:29;-1.60;99.90
23289;DHT22;11813;50.834;4.280;2022-12-18T08:59:55;-1.40;99.90
23289;DHT22;11813;50.834;4.280;2022-12-18T09:02:20;-1.10;99.90
23289;DHT22;11813;50.834;4.280;2022-12-18T09:04:49;-0.90;99.90
23289;DHT22;11813;50.834;4.280;2022-12-18T09:07:14;-0.80;99.90
23289;DHT22;11813;50.834;4.280;2022-12-18T09:09:40;-0.60;99.90
23289;DHT22;11813;50.834;4.280;2022-12-18T09:12:05;-0.50;99.90
23289;DHT22;11813;50.834;4.280;2022-12-18T09:14:31;-0.40;99.90
23289;DHT22;11813;50.834;4.280;2022-12-18T09:16:57;-0.40;99.90
23289;DHT22;11813;50.834;4.280;2022-12-18T09:19:22;-0.40;99.90
23289;DHT22;11813;50.834;4.280;2022-12-18T09:21:48;-0.30;99.90
23289;DHT22;11813;50.834;4.280;2022-12-18T09:24:14;-0.30;99.90
23289;DHT22;11813;50.834;4.280;2022-12-18T09:26:40;-0.40;99.90
23289;DHT22;11813;50.834;4.280;2022-12-18T09:29:06;-0.30;99.90
23289;DHT22;11813;50.834;4.280;2022-12-18T09:31:33;-0.10;99.90
23289;DHT22;11813;50.834;4.280;2022-12-18T09:33:59;0.00;99.90
23289;DHT22;11813;50.834;4.280;2022-12-18T09:36:24;-0.10;99.90
23289;DHT22;11813;50.834;4.280;2022-12-18T09:38:50;0.00;99.90
23289;DHT22;11813;50.834;4.280;2022-12-18T09:43:47;0.20;99.90
23289;DHT22;11813;50.834;4.280;2022-12-18T09:46:23;0.30;99.90
23289;DHT22;11813;50.834;4.280;2022-12-18T09:48:53;0.30;99.90
23289;DHT22;11813;50.834;4.280;2022-12-18T09:51:26;0.30;99.90
23289;DHT22;11813;50.834;4.280;2022-12-18T09:54:04;0.40;99.90
23289;DHT22;11813;50.834;4.280;2022-12-18T09:56:35;0.30;99.90
23289;DHT22;11813;50.834;4.280;2022-12-18T09:59:04;0.30;99.90
23289;DHT22;11813;50.834;4.280;2022-12-18T10:01:31;0.40;99.90
23289;DHT22;11813;50.834;4.280;2022-12-18T10:03:57;0.40;99.90
23289;DHT22;11813;50.834;4.280;2022-12-18T10:12:13;0.80;99.90
23289;DHT22;11813;50.834;4.280;2022-12-18T10:15:04;0.90;99.90
23289;DHT22;11813;50.834;4.280;2022-12-18T10:17:51;1.00;99.90
23289;DHT22;11813;50.834;4.280;2022-12-18T10:28:16;1.00;99.90
23289;DHT22;11813;50.834;4.280;2022-12-18T10:30:43;0.90;99.90
23289;DHT22;11813;50.834;4.280;2022-12-18T10:33:21;0.90;99.90
23289;DHT22;11813;50.834;4.280;2022-12-18T10:35:49;1.00;99.90
23289;DHT22;11813;50.834;4.280;2022-12-18T10:43:47;1.40;99.90
23289;DHT22;11813;50.834;4.280;2022-12-18T10:46:19;1.30;99.90
23289;DHT22;11813;50.834;4.280;2022-12-18T10:54:37;1.50;99.90
23289;DHT22;11813;50.834;4.280;2022-12-18T10:56:38;1.60;99.90
23289;DHT22;11813;50.834;4.280;2022-12-18T10:59:06;1.60;99.90
23289;DHT22;11813;50.834;4.280;2022-12-18T11:01:57;1.80;99.90
23289;DHT22;11813;50.834;4.280;2022-12-18T11:07:08;2.10;99.90
23289;DHT22;11813;50.834;4.280;2022-12-18T11:09:37;2.10;99.90
23289;DHT22;11813;50.834;4.280;2022-12-18T11:12:23;2.00;99.90
23289;DHT22;11813;50.834;4.280;2022-12-18T11:14:51;2.10;99.90
23289;DHT22;11813;50.834;4.280;2022-12-18T11:19:59;2.20;99.90
23289;DHT22;11813;50.834;4.280;2022-12-18T11:22:30;2.30;99.90
23289;DHT22;11813;50.834;4.280;2022-12-18T11:27:28;2.40;99.90
23289;DHT22;11813;50.834;4.280;2022-12-18T11:30:26;2.40;99.90
23289;DHT22;11813;50.834;4.280;2022-12-18T11:33:11;2.50;99.90
23289;DHT22;11813;50.834;4.280;2022-12-18T11:35:52;2.40;99.90
23289;DHT22;11813;50.834;4.280;2022-12-18T11:38:33;2.50;99.90
23289;DHT22;11813;50.834;4.280;2022-12-18T11:43:56;2.40;99.90
23289;DHT22;11813;50.834;4.280;2022-12-18T11:46:30;2.20;99.90
23289;DHT22;11813;50.834;4.280;2022-12-18T11:49:12;2.20;99.90
23289;DHT22;11813;50.834;4.280;2022-12-18T11:51:51;2.20;99.90
23289;DHT22;11813;50.834;4.280;2022-12-18T11:54:18;2.30;99.90
23289;DHT22;11813;50.834;4.280;2022-12-18T11:57:15;2.40;99.90
23289;DHT22;11813;50.834;4.280;2022-12-18T12:12:40;2.90;99.90
23289;DHT22;11813;50.834;4.280;2022-12-18T12:20:53;2.80;99.90
23289;DHT22;11813;50.834;4.280;2022-12-18T12:26:11;2.80;99.90
23289;DHT22;11813;50.834;4.280;2022-12-18T12:37:07;2.70;99.90
23289;DHT22;11813;50.834;4.280;2022-12-18T12:39:37;2.70;99.90
23289;DHT22;11813;50.834;4.280;2022-12-18T12:42:10;2.80;99.90
23289;DHT22;11813;50.834;4.280;2022-12-18T12:44:56;3.00;99.90
23289;DHT22;11813;50.834;4.280;2022-12-18T12:47:38;2.90;99.90
23289;DHT22;11813;50.834;4.280;2022-12-18T12:50:14;2.70;99.90
23289;DHT22;11813;50.834;4.280;2022-12-18T12:52:47;2.70;99.90
23289;DHT22;11813;50.834;4.280;2022-12-18T12:55:20;2.60;99.90
23289;DHT22;11813;50.834;4.280;2022-12-18T13:00:20;2.50;99.90
23289;DHT22;11813;50.834;4.280;2022-12-18T13:03:05;2.50;99.90
23289;DHT22;11813;50.834;4.280;2022-12-18T13:08:32;2.20;99.90
23289;DHT22;11813;50.834;4.280;2022-12-18T13:11:31;2.20;99.90
23289;DHT22;11813;50.834;4.280;2022-12-18T13:14:34;2.40;99.90
23289;DHT22;11813;50.834;4.280;2022-12-18T13:19:52;2.40;99.90
23289;DHT22;11813;50.834;4.280;2022-12-18T13:22:37;2.50;99.90
23289;DHT22;11813;50.834;4.280;2022-12-18T13:28:16;2.50;99.90
23289;DHT22;11813;50.834;4.280;2022-12-18T13:31:15;2.60;99.90
23289;DHT22;11813;50.834;4.280;2022-12-18T13:34:19;2.50;99.90
23289;DHT22;11813;50.834;4.280;2022-12-18T13:36:46;2.50;99.90
23289;DHT22;11813;50.834;4.280;2022-12-18T13:41:41;2.60;99.90
23289;DHT22;11813;50.834;4.280;2022-12-18T13:44:24;2.60;99.90
23289;DHT22;11813;50.834;4.280;2022-12-18T13:46:51;2.60;99.90
23289;DHT22;11813;50.834;4.280;2022-12-18T13:51:49;2.70;99.90
23289;DHT22;11813;50.834;4.280;2022-12-18T13:54:36;2.90;99.90
23289;DHT22;11813;50.834;4.280;2022-12-18T13:57:03;2.90;99.90
23289;DHT22;11813;50.834;4.280;2022-12-18T13:59:35;2.90;99.90
23289;DHT22;11813;50.834;4.280;2022-12-18T14:04:38;2.80;99.90
23289;DHT22;11813;50.834;4.280;2022-12-18T14:07:06;2.70;99.90
23289;DHT22;11813;50.834;4.280;2022-12-18T14:09:37;2.70;99.90
23289;DHT22;11813;50.834;4.280;2022-12-18T14:12:05;2.60;99.90
23289;DHT22;11813;50.834;4.280;2022-12-18T14:14:51;2.60;99.90
23289;DHT22;11813;50.834;4.280;2022-12-18T14:17:18;2.60;99.90
23289;DHT22;11813;50.834;4.280;2022-12-18T14:19:46;2.40;99.90
23289;DHT22;11813;50.834;4.280;2022-12-18T14:22:20;2.40;99.90
23289;DHT22;11813;50.834;4.280;2022-12-18T14:24:47;2.40;99.90
23289;DHT22;11813;50.834;4.280;2022-12-18T14:27:22;2.40;99.90
23289;DHT22;11813;50.834;4.280;2022-12-18T14:29:48;2.50;99.90
23289;DHT22;11813;50.834;4.280;2022-12-18T14:32:16;2.60;99.90
23289;DHT22;11813;50.834;4.280;2022-12-18T14:34:45;2.80;99.90
23289;DHT22;11813;50.834;4.280;2022-12-18T14:37:12;2.50;99.90
23289;DHT22;11813;50.834;4.280;2022-12-18T14:39:38;2.60;99.90
23289;DHT22;11813;50.834;4.280;2022-12-18T14:42:04;2.60;99.90
23289;DHT22;11813;50.834;4.280;2022-12-18T14:44:29;2.60;99.90
23289;DHT22;11813;50.834;4.280;2022-12-18T14:46:56;2.70;99.90
23289;DHT22;11813;50.834;4.280;2022-12-18T14:49:41;2.60;99.90
23289;DHT22;11813;50.834;4.280;2022-12-18T14:52:23;2.70;99.90
23289;DHT22;11813;50.834;4.280;2022-12-18T14:54:52;2.80;99.90
23289;DHT22;11813;50.834;4.280;2022-12-18T14:57:36;2.90;99.90
23289;DHT22;11813;50.834;4.280;2022-12-18T15:00:11;2.90;99.90
23289;DHT22;11813;50.834;4.280;2022-12-18T15:02:41;2.90;99.90
23289;DHT22;11813;50.834;4.280;2022-12-18T15:07:42;2.70;99.90
23289;DHT22;11813;50.834;4.280;2022-12-18T15:10:20;2.70;99.90
23289;DHT22;11813;50.834;4.280;2022-12-18T15:18:04;2.80;99.90
23289;DHT22;11813;50.834;4.280;2022-12-18T15:20:33;2.50;99.90
23289;DHT22;11813;50.834;4.280;2022-12-18T15:23:04;2.50;99.90
23289;DHT22;11813;50.834;4.280;2022-12-18T15:25:37;2.60;99.90
23289;DHT22;11813;50.834;4.280;2022-12-18T15:28:04;2.60;99.90
23289;DHT22;11813;50.834;4.280;2022-12-18T15:31:19;2.50;99.90
23289;DHT22;11813;50.834;4.280;2022-12-18T15:33:44;2.40;99.90
23289;DHT22;11813;50.834;4.280;2022-12-18T15:36:16;2.40;99.90
23289;DHT22;11813;50.834;4.280;2022-12-18T15:38:45;2.40;99.90
23289;DHT22;11813;50.834;4.280;2022-12-18T15:41:14;2.40;99.90
23289;DHT22;11813;50.834;4.280;2022-12-18T15:43:40;2.50;99.90
23289;DHT22;11813;50.834;4.280;2022-12-18T15:46:19;2.60;99.90
23289;DHT22;11813;50.834;4.280;2022-12-18T15:48:50;2.60;99.90
23289;DHT22;11813;50.834;4.280;2022-12-18T15:51:22;2.60;99.90
23289;DHT22;11813;50.834;4.280;2022-12-18T15:53:50;2.70;99.90
23289;DHT22;11813;50.834;4.280;2022-12-18T15:56:17;2.80;99.90
23289;DHT22;11813;50.834;4.280;2022-12-18T15:59:02;2.80;99.90
23289;DHT22;11813;50.834;4.280;2022-12-18T16:01:29;2.70;99.90
23289;DHT22;11813;50.834;4.280;2022-12-18T16:03:55;2.70;99.90
23289;DHT22;11813;50.834;4.280;2022-12-18T16:06:24;2.50;99.90
23289;DHT22;11813;50.834;4.280;2022-12-18T16:08:50;2.60;99.90
23289;DHT22;11813;50.834;4.280;2022-12-18T16:11:27;2.60;99.90
23289;DHT22;11813;50.834;4.280;2022-12-18T16:14:23;2.60;99.90
23289;DHT22;11813;50.834;4.280;2022-12-18T16:16:54;2.50;99.90
23289;DHT22;11813;50.834;4.280;2022-12-18T16:19:20;2.50;99.90
23289;DHT22;11813;50.834;4.280;2022-12-18T16:21:47;2.50;99.90
23289;DHT22;11813;50.834;4.280;2022-12-18T16:24:19;2.60;99.90
23289;DHT22;11813;50.834;4.280;2022-12-18T16:26:47;2.60;99.90
23289;DHT22;11813;50.834;4.280;2022-12-18T16:29:13;2.70;99.90
23289;DHT22;11813;50.834;4.280;2022-12-18T16:31:40;2.70;99.90
23289;DHT22;11813;50.834;4.280;2022-12-18T16:37:01;2.60;99.90
23289;DHT22;11813;50.834;4.280;2022-12-18T16:39:27;2.50;99.90
23289;DHT22;11813;50.834;4.280;2022-12-18T16:41:53;2.60;99.90
23289;DHT22;11813;50.834;4.280;2022-12-18T16:44:19;2.60;99.90
23289;DHT22;11813;50.834;4.280;2022-12-18T16:46:45;2.50;99.90
23289;DHT22;11813;50.834;4.280;2022-12-18T16:49:13;2.60;99.90
23289;DHT22;11813;50.834;4.280;2022-12-18T16:51:38;2.70;99.90
23289;DHT22;11813;50.834;4.280;2022-12-18T16:54:04;2.70;99.90
23289;DHT22;11813;50.834;4.280;2022-12-18T16:56:30;2.70;99.90
23289;DHT22;11813;50.834;4.280;2022-12-18T16:58:59;2.80;99.90
23289;DHT22;11813;50.834;4.280;2022-12-18T17:01:27;2.80;99.90
23289;DHT22;11813;50.834;4.280;2022-12-18T17:04:03;2.70;99.90
23289;DHT22;11813;50.834;4.280;2022-12-18T17:06:31;2.90;99.90
23289;DHT22;11813;50.834;4.280;2022-12-18T17:09:03;3.00;99.90
23289;DHT22;11813;50.834;4.280;2022-12-18T17:11:30;2.90;99.90
23289;DHT22;11813;50.834;4.280;2022-12-18T17:13:56;3.10;99.90
23289;DHT22;11813;50.834;4.280;2022-12-18T17:16:23;3.00;99.90
23289;DHT22;11813;50.834;4.280;2022-12-18T17:18:49;3.00;99.90
23289;DHT22;11813;50.834;4.280;2022-12-18T17:21:15;2.90;99.90
23289;DHT22;11813;50.834;4.280;2022-12-18T17:23:41;2.90;99.90
23289;DHT22;11813;50.834;4.280;2022-12-18T17:26:09;2.90;99.90
23289;DHT22;11813;50.834;4.280;2022-12-18T17:28:36;2.90;99.90
23289;DHT22;11813;50.834;4.280;2022-12-18T17:31:13;2.80;99.90
23289;DHT22;11813;50.834;4.280;2022-12-18T17:33:39;2.90;99.90
23289;DHT22;11813;50.834;4.280;2022-12-18T17:36:05;3.10;99.90
23289;DHT22;11813;50.834;4.280;2022-12-18T17:38:31;3.20;99.90
23289;DHT22;11813;50.834;4.280;2022-12-18T17:41:14;3.10;99.90
23289;DHT22;11813;50.834;4.280;2022-12-18T17:43:40;3.00;99.90
23289;DHT22;11813;50.834;4.280;2022-12-18T17:46:12;3.00;99.90
23289;DHT22;11813;50.834;4.280;2022-12-18T17:48:37;3.00;99.90
23289;DHT22;11813;50.834;4.280;2022-12-18T17:51:08;3.00;99.90
23289;DHT22;11813;50.834;4.280;2022-12-18T17:53:34;3.00;99.90